Time;durP1;ratioP1;P1;durP2;ratioP2;P2;SDS_P1;SDS_P2;PMS_P1;PMS_P2;Temp;Humidity;BMP_temperature;BMP_pressure;BME280_temperature;BME280_humidity;BME280_pressure;Samples;Min_cycle;Max_cycle;Signal;HPM_P1;HPM_P2
2021/08/23 00:01:55;;;;;;;5.80;4.65;;;;;;;22.87;59.43;100287.84;5111992;28;20027;-64
2021/08/23 00:04:21;;;;;;;6.68;4.30;;;;;;;22.87;59.59;100287.84;5111732;28;20028;-64
2021/08/23 00:06:46;;;;;;;5.95;4.43;;;;;;;22.85;60.55;100277.13;5110335;28;20025;-65
2021/08/23 00:09:11;;;;;;;8.65;4.53;;;;;;;22.87;60.40;100279.66;5111525;28;20027;-64
2021/08/23 00:11:37;;;;;;;10.23;4.75;;;;;;;22.81;60.37;100270.41;5112014;28;21540;-64
2021/08/23 00:14:02;;;;;;;6.38;4.50;;;;;;;22.85;61.09;100268.91;5111784;28;20059;-64
2021/08/23 00:16:28;;;;;;;5.95;4.75;;;;;;;22.82;62.25;100265.78;5111795;28;20112;-64
2021/08/23 00:18:54;;;;;;;8.95;5.03;;;;;;;22.83;63.64;100267.47;5111378;28;20038;-64
2021/08/23 00:21:24;;;;;;;8.00;5.13;;;;;;;22.80;63.00;100276.09;5110243;28;20030;-64
2021/08/23 00:23:53;;;;;;;8.15;5.00;;;;;;;22.69;62.85;100255.69;5111370;28;20034;-65
2021/08/23 00:26:18;;;;;;;9.93;5.22;;;;;;;22.72;63.12;100271.69;5110108;28;20024;-65
2021/08/23 00:28:44;;;;;;;9.32;5.13;;;;;;;22.59;63.51;100244.38;5111972;28;20054;-64
2021/08/23 00:31:10;;;;;;;8.10;5.07;;;;;;;22.61;63.55;100258.69;5112159;28;20027;-64
2021/08/23 00:33:36;;;;;;;8.07;5.13;;;;;;;22.60;64.28;100262.44;5112117;28;20240;-62
2021/08/23 00:36:02;;;;;;;9.05;4.80;;;;;;;22.56;64.84;100254.88;5111925;28;20109;-64
2021/08/23 00:38:27;;;;;;;6.72;5.15;;;;;;;22.52;65.07;100256.38;5111816;28;20472;-64
2021/08/23 00:40:52;;;;;;;11.85;5.03;;;;;;;22.49;65.65;100249.44;5111399;28;20363;-64
2021/08/23 00:43:18;;;;;;;10.43;5.70;;;;;;;22.44;65.67;100256.56;5111283;28;20031;-64
2021/08/23 00:45:45;;;;;;;9.63;4.97;;;;;;;22.34;66.09;100244.19;5111407;28;20036;-62
2021/08/23 00:48:10;;;;;;;8.93;5.03;;;;;;;22.35;66.81;100256.78;5110954;28;20490;-63
2021/08/23 00:50:36;;;;;;;8.82;5.10;;;;;;;22.29;66.86;100248.59;5111152;28;20039;-62
2021/08/23 00:53:03;;;;;;;9.35;5.47;;;;;;;22.22;66.99;100242.31;5111462;28;20032;-62
2021/08/23 00:55:31;;;;;;;6.93;5.25;;;;;;;22.16;67.74;100243.16;5129164;27;20019;-63
2021/08/23 00:57:58;;;;;;;6.53;5.10;;;;;;;22.15;67.87;100253.22;5131874;27;20019;-63
2021/08/23 01:00:23;;;;;;;12.40;5.55;;;;;;;22.09;68.15;100245.88;5131954;27;20529;-63
2021/08/23 01:03:04;;;;;;;14.48;5.65;;;;;;;22.08;68.24;100259.72;5131750;27;20027;-63
2021/08/23 01:05:31;;;;;;;8.07;5.30;;;;;;;22.05;68.83;100260.16;5132098;27;20031;-63
2021/08/23 01:08:12;;;;;;;8.85;5.38;;;;;;;21.98;69.51;100256.56;5131719;27;20402;-63
2021/08/23 01:10:44;;;;;;;8.23;5.22;;;;;;;21.96;69.87;100259.53;5130440;27;20080;-63
2021/08/23 01:13:10;;;;;;;9.88;5.30;;;;;;;21.89;70.55;100252.38;5131886;27;20062;-63
2021/08/23 01:15:40;;;;;;;8.77;5.57;;;;;;;21.88;71.02;100251.53;5131795;27;20026;-63
2021/08/23 01:18:05;;;;;;;7.30;4.93;;;;;;;21.79;71.23;100241.03;5131748;27;20101;-63
2021/08/23 01:20:34;;;;;;;7.88;5.57;;;;;;;21.74;71.29;100235.34;5131546;27;20118;-64
2021/08/23 01:23:01;;;;;;;7.40;5.50;;;;;;;21.69;71.14;100241.41;5131426;27;20035;-63
2021/08/23 01:25:31;;;;;;;5.72;5.03;;;;;;;21.71;71.51;100243.94;5131518;27;20023;-62
2021/08/23 01:28:21;;;;;;;9.48;5.90;;;;;;;21.68;71.79;100244.34;5130091;27;20117;-63
2021/08/23 01:31:14;;;;;;;8.23;5.30;;;;;;;21.63;71.67;100244.09;5131372;27;20478;-63
2021/08/23 01:33:43;;;;;;;12.10;5.72;;;;;;;21.58;72.00;100231.13;5131307;27;20023;-63
2021/08/23 01:36:10;;;;;;;13.55;6.15;;;;;;;21.57;72.29;100239.50;5131505;27;20027;-63
2021/08/23 01:38:35;;;;;;;11.13;5.20;;;;;;;21.55;72.27;100236.97;5131198;27;20023;-63
2021/08/23 01:41:03;;;;;;;10.77;5.57;;;;;;;21.52;72.61;100233.81;5131210;27;20030;-65
2021/08/23 01:43:28;;;;;;;7.30;5.20;;;;;;;21.49;72.69;100223.31;5131304;27;20023;-62
2021/08/23 01:45:54;;;;;;;12.38;5.55;;;;;;;21.44;72.75;100221.19;5130862;27;20039;-63
2021/08/23 01:48:19;;;;;;;9.02;5.45;;;;;;;21.42;73.18;100228.78;5130718;27;20027;-63
2021/08/23 01:50:45;;;;;;;12.40;5.40;;;;;;;21.40;73.62;100224.53;5131325;27;20100;-64
2021/08/23 01:53:11;;;;;;;11.05;5.65;;;;;;;21.37;73.96;100228.53;5131241;27;20373;-64
2021/08/23 01:55:37;;;;;;;10.45;5.18;;;;;;;21.36;73.74;100231.47;5131020;27;20027;-64
2021/08/23 01:58:04;;;;;;;9.30;5.50;;;;;;;21.33;73.95;100231.88;5128257;27;20015;-64
2021/08/23 02:00:30;;;;;;;8.52;5.65;;;;;;;21.26;74.10;100218.22;5110178;28;20054;-65
2021/08/23 02:02:55;;;;;;;8.52;5.22;;;;;;;21.24;74.29;100219.47;5109923;27;20106;-63
2021/08/23 02:05:20;;;;;;;10.90;5.95;;;;;;;21.25;74.30;100216.53;5127645;27;20035;-63
2021/08/23 02:07:46;;;;;;;10.57;5.45;;;;;;;21.23;74.19;100215.06;5129808;27;20072;-63
2021/08/23 02:10:11;;;;;;;6.32;4.82;;;;;;;21.09;74.23;100200.53;5130807;27;20332;-63
2021/08/23 02:12:37;;;;;;;8.95;5.72;;;;;;;21.21;74.39;100219.88;5130665;27;20106;-64
2021/08/23 02:15:03;;;;;;;7.82;5.22;;;;;;;21.17;74.72;100207.69;5130267;27;20035;-65
2021/08/23 02:17:28;;;;;;;7.22;5.70;;;;;;;21.13;74.64;100206.44;5130324;27;20027;-64
2021/08/23 02:19:54;;;;;;;6.57;5.40;;;;;;;21.15;74.53;100210.63;5130402;27;20469;-64
2021/08/23 02:22:19;;;;;;;9.30;5.70;;;;;;;21.15;74.62;100212.53;5130510;27;20019;-63
2021/08/23 02:24:45;;;;;;;8.68;5.03;;;;;;;21.15;74.52;100207.06;5130331;27;20456;-64
2021/08/23 02:27:11;;;;;;;6.85;5.53;;;;;;;21.13;74.77;100207.28;5127663;27;20522;-64
2021/08/23 02:29:36;;;;;;;6.20;4.88;;;;;;;21.15;75.23;100205.16;5130381;27;20408;-64
2021/08/23 02:32:02;;;;;;;8.35;5.63;;;;;;;21.11;74.83;100194.88;5129940;27;20087;-64
2021/08/23 02:34:27;;;;;;;8.63;5.68;;;;;;;21.14;74.99;100208.09;5128898;27;20024;-64
2021/08/23 02:36:53;;;;;;;10.18;5.57;;;;;;;21.13;74.85;100196.38;5130036;27;20030;-64
2021/08/23 02:39:18;;;;;;;11.27;5.22;;;;;;;21.12;74.76;100205.56;5130006;27;20382;-64
2021/08/23 02:41:44;;;;;;;10.20;5.43;;;;;;;21.09;75.22;100197.81;5130799;27;20023;-64
2021/08/23 02:44:09;;;;;;;7.68;5.40;;;;;;;21.11;75.31;100194.88;5128433;27;20043;-64
2021/08/23 02:46:35;;;;;;;8.35;5.22;;;;;;;21.10;75.13;100191.31;5129038;27;20099;-64
2021/08/23 02:49:00;;;;;;;8.38;5.38;;;;;;;21.03;75.09;100190.47;5129532;27;20038;-64
2021/08/23 02:51:25;;;;;;;7.60;5.25;;;;;;;21.09;75.53;100208.72;5129610;27;20125;-62
2021/08/23 02:53:51;;;;;;;9.57;6.18;;;;;;;21.07;75.58;100207.25;5129496;27;20035;-63
2021/08/23 02:56:16;;;;;;;13.50;5.55;;;;;;;21.10;75.45;100209.56;5129806;27;20394;-63
2021/08/23 02:58:42;;;;;;;8.95;5.13;;;;;;;21.08;75.29;100204.31;5125631;27;20044;-63
2021/08/23 03:01:07;;;;;;;11.00;5.50;;;;;;;21.07;75.39;100209.97;5108675;28;20043;-63
2021/08/23 03:03:36;;;;;;;11.23;5.88;;;;;;;21.05;75.96;100210.16;5121961;27;20023;-63
2021/08/23 03:06:01;;;;;;;10.98;5.65;;;;;;;21.06;75.94;100221.94;5129506;27;20035;-63
2021/08/23 03:08:27;;;;;;;10.65;5.28;;;;;;;21.02;76.13;100210.59;5128114;27;20038;-63
2021/08/23 03:10:54;;;;;;;7.00;5.20;;;;;;;21.06;76.71;100221.94;5129260;27;20030;-63
2021/08/23 03:13:21;;;;;;;6.90;5.15;;;;;;;21.09;76.82;100221.53;5128327;27;20095;-63
2021/08/23 03:15:47;;;;;;;10.40;5.53;;;;;;;21.08;74.96;100225.28;5129361;27;20095;-63
2021/08/23 03:18:12;;;;;;;10.80;5.75;;;;;;;21.09;75.45;100227.81;5129390;27;20031;-63
2021/08/23 03:20:38;;;;;;;10.90;5.72;;;;;;;21.09;74.77;100221.53;5128874;27;20019;-62
2021/08/23 03:23:03;;;;;;;14.52;6.03;;;;;;;21.11;75.50;100223.00;5129292;27;20031;-63
2021/08/23 03:25:29;;;;;;;14.73;6.13;;;;;;;21.09;76.19;100230.53;5128725;27;20069;-62
2021/08/23 03:27:54;;;;;;;10.05;5.55;;;;;;;21.09;76.28;100222.34;5128425;27;20031;-63
2021/08/23 03:30:20;;;;;;;9.57;5.72;;;;;;;21.10;75.97;100226.78;5128635;27;20135;-63
2021/08/23 03:32:45;;;;;;;8.63;5.90;;;;;;;21.08;73.83;100225.28;5129155;27;20424;-63
2021/08/23 03:35:11;;;;;;;13.32;6.53;;;;;;;21.09;71.38;100227.81;5129024;27;20023;-63
2021/08/23 03:37:36;;;;;;;7.63;5.47;;;;;;;21.10;70.00;100226.78;5124552;27;20023;-63
2021/08/23 03:40:02;;;;;;;9.93;6.03;;;;;;;21.13;69.02;100230.97;5108323;28;20027;-63
2021/08/23 03:42:27;;;;;;;7.25;5.50;;;;;;;21.10;67.96;100223.19;5125575;28;20019;-64
2021/08/23 03:44:53;;;;;;;7.63;5.35;;;;;;;21.11;67.24;100225.72;5128048;27;20111;-64
2021/08/23 03:47:18;;;;;;;8.57;6.43;;;;;;;21.17;66.53;100224.91;5127784;27;20023;-64
2021/08/23 03:49:44;;;;;;;12.38;6.15;;;;;;;21.20;65.90;100234.56;5128499;27;20471;-63
2021/08/23 03:52:10;;;;;;;8.20;5.68;;;;;;;21.22;65.71;100222.38;5128764;27;20084;-63
2021/08/23 03:54:35;;;;;;;9.38;6.15;;;;;;;21.22;65.62;100225.13;5128929;27;20023;-63
2021/08/23 03:57:01;;;;;;;10.88;6.30;;;;;;;21.18;65.21;100218.41;5129239;27;20386;-63
2021/08/23 03:59:26;;;;;;;9.75;6.22;;;;;;;21.24;64.81;100217.59;5128743;27;20539;-63
2021/08/23 04:01:52;;;;;;;10.60;6.18;;;;;;;21.30;64.74;100224.09;5128918;27;20026;-64
2021/08/23 04:04:17;;;;;;;9.55;6.15;;;;;;;21.30;65.01;100227.69;5129235;27;20092;-65
2021/08/23 04:06:46;;;;;;;12.27;5.85;;;;;;;21.30;65.31;100229.56;5128826;27;20062;-64
2021/08/23 04:09:13;;;;;;;9.02;6.18;;;;;;;21.32;65.42;100235.66;5128945;27;20087;-65
2021/08/23 04:11:38;;;;;;;13.50;6.13;;;;;;;21.32;65.54;100241.97;5128731;27;20068;-64
2021/08/23 04:14:04;;;;;;;11.98;6.28;;;;;;;21.34;65.71;100247.19;5128865;27;20047;-64
2021/08/23 04:16:29;;;;;;;11.18;6.05;;;;;;;21.33;66.61;100248.25;5128946;27;20024;-64
2021/08/23 04:18:54;;;;;;;7.65;5.68;;;;;;;21.24;66.97;100244.88;5128628;27;20063;-64
2021/08/23 04:21:20;;;;;;;8.93;5.78;;;;;;;21.37;67.49;100279.53;5128801;27;20023;-64
2021/08/23 04:23:45;;;;;;;9.57;5.75;;;;;;;21.42;67.68;100285.22;5128995;27;20020;-64
2021/08/23 04:26:11;;;;;;;14.48;5.93;;;;;;;21.41;68.59;100295.28;5128822;27;20031;-61
2021/08/23 04:28:36;;;;;;;18.42;6.88;;;;;;;21.38;69.93;100283.97;5109702;27;20030;-61
2021/08/23 04:31:02;;;;;;;13.82;6.78;;;;;;;21.37;70.55;100291.28;5129593;27;20136;-62
2021/08/23 04:33:27;;;;;;;14.55;6.28;;;;;;;21.34;70.70;100288.13;5131988;27;20447;-62
2021/08/23 04:35:53;;;;;;;10.70;6.50;;;;;;;21.32;71.01;100295.69;5112068;28;20027;-62
2021/08/23 04:38:18;;;;;;;11.65;6.45;;;;;;;21.27;71.05;100273.63;5109248;28;20099;-62
2021/08/23 04:40:44;;;;;;;12.82;6.90;;;;;;;21.30;71.23;100273.22;5111409;28;20031;-62
2021/08/23 04:43:09;;;;;;;12.80;6.88;;;;;;;21.29;71.52;100280.56;5110914;28;20020;-62
2021/08/23 04:45:35;;;;;;;14.32;7.00;;;;;;;21.23;71.49;100272.34;5111052;28;20044;-63
2021/08/23 04:48:00;;;;;;;11.35;6.45;;;;;;;21.15;71.57;100256.19;5111405;28;20054;-63
2021/08/23 04:50:25;;;;;;;13.10;6.60;;;;;;;21.20;71.74;100273.59;5111111;28;20026;-63
2021/08/23 04:52:51;;;;;;;13.27;7.18;;;;;;;21.20;72.66;100270.03;5111086;28;20043;-64
2021/08/23 04:55:17;;;;;;;17.65;6.95;;;;;;;21.14;72.74;100266.22;5111190;28;20038;-64
2021/08/23 04:57:43;;;;;;;14.77;6.15;;;;;;;21.21;71.31;100278.00;5110869;28;20027;-64
2021/08/23 05:00:10;;;;;;;10.65;6.57;;;;;;;21.22;70.17;100276.13;5111308;28;20348;-64
2021/08/23 05:02:36;;;;;;;11.85;6.43;;;;;;;21.27;69.35;100268.16;5111223;28;20016;-64
2021/08/23 05:05:01;;;;;;;16.75;6.10;;;;;;;21.35;69.08;100268.00;5111503;28;20034;-64
2021/08/23 05:07:26;;;;;;;14.60;6.88;;;;;;;21.42;69.31;100268.84;5111219;28;20030;-65
2021/08/23 05:09:52;;;;;;;9.18;5.97;;;;;;;21.51;68.98;100270.34;5111257;28;20487;-64
2021/08/23 05:12:17;;;;;;;12.13;5.97;;;;;;;21.62;67.97;100273.31;5119423;27;20114;-65
2021/08/23 05:14:43;;;;;;;11.10;6.53;;;;;;;21.71;67.30;100268.50;5117394;27;20107;-64
2021/08/23 05:17:08;;;;;;;10.02;6.15;;;;;;;21.82;66.45;100265.19;5110027;28;20096;-65
2021/08/23 05:19:34;;;;;;;10.13;5.65;;;;;;;21.96;66.07;100269.63;5128811;27;20027;-65
2021/08/23 05:21:59;;;;;;;10.77;6.03;;;;;;;22.07;65.91;100271.72;5128976;27;20115;-64
2021/08/23 05:24:25;;;;;;;8.90;5.68;;;;;;;22.18;65.34;100261.00;5131218;27;20074;-65
2021/08/23 05:26:50;;;;;;;11.45;6.30;;;;;;;22.32;65.16;100259.09;5130173;27;20023;-65
2021/08/23 05:29:16;;;;;;;10.50;6.45;;;;;;;22.42;64.54;100270.44;5130081;27;20023;-65
2021/08/23 05:31:41;;;;;;;16.55;6.13;;;;;;;22.54;64.40;100262.47;5130106;27;20058;-64
2021/08/23 05:34:06;;;;;;;11.70;6.80;;;;;;;22.64;63.87;100254.66;5131143;27;20470;-65
2021/08/23 05:36:32;;;;;;;11.85;5.53;;;;;;;22.81;63.94;100267.66;5131415;27;20023;-64
2021/08/23 05:38:57;;;;;;;16.75;6.53;;;;;;;22.86;63.77;100256.91;5116091;27;20016;-64
2021/08/23 05:41:23;;;;;;;14.45;5.53;;;;;;;23.05;63.52;100258.75;5110391;28;20491;-65
2021/08/23 05:43:48;;;;;;;15.75;6.63;;;;;;;23.28;63.11;100267.28;5110683;28;20104;-65
2021/08/23 05:46:22;;;;;;;9.25;5.55;;;;;;;23.46;62.49;100263.84;5125034;27;20073;-64
2021/08/23 05:48:48;;;;;;;9.27;5.85;;;;;;;23.64;62.02;100266.69;5104233;28;20427;-65
2021/08/23 05:51:16;;;;;;;7.95;5.55;;;;;;;23.81;61.52;100262.38;5108813;28;20028;-63
2021/08/23 05:53:43;;;;;;;15.52;6.78;;;;;;;23.99;61.08;100266.06;5107660;28;20481;-63
2021/08/23 05:56:09;;;;;;;19.52;6.20;;;;;;;24.19;60.50;100271.38;5126719;27;20122;-63
2021/08/23 05:58:35;;;;;;;8.80;6.18;;;;;;;24.34;60.43;100269.97;5129188;27;20101;-64
2021/08/23 06:01:00;;;;;;;12.52;6.15;;;;;;;24.48;60.20;100257.00;5130410;27;20359;-64
2021/08/23 06:03:26;;;;;;;10.00;6.38;;;;;;;24.68;60.32;100259.53;5127200;27;20563;-64
2021/08/23 06:05:51;;;;;;;11.90;6.60;;;;;;;24.88;59.84;100252.78;5110064;28;20092;-64
2021/08/23 06:08:17;;;;;;;14.55;6.40;;;;;;;25.08;59.73;100258.06;5122282;27;20034;-65
2021/08/23 06:10:44;;;;;;;13.20;6.90;;;;;;;25.26;59.29;100263.50;5129944;27;20106;-64
2021/08/23 06:13:10;;;;;;;16.95;5.90;;;;;;;25.47;58.63;100265.81;5121645;27;20034;-64
2021/08/23 06:15:35;;;;;;;14.15;6.65;;;;;;;25.66;57.60;100267.44;5126740;27;20022;-64
2021/08/23 06:18:01;;;;;;;15.18;6.70;;;;;;;25.81;56.60;100265.94;5114072;27;20023;-63
2021/08/23 06:20:26;;;;;;;11.18;6.00;;;;;;;25.99;55.77;100263.13;5129891;27;20039;-63
2021/08/23 06:22:51;;;;;;;10.10;5.95;;;;;;;26.18;55.03;100275.72;5118029;27;20032;-64
2021/08/23 06:25:17;;;;;;;9.20;5.88;;;;;;;26.29;54.58;100266.66;5109318;28;20035;-63
2021/08/23 06:27:45;;;;;;;9.55;5.70;;;;;;;26.43;54.12;100270.84;5108083;28;20031;-63
2021/08/23 06:30:11;;;;;;;9.90;6.13;;;;;;;26.56;53.48;100263.44;5124502;27;20046;-64
2021/08/23 06:32:36;;;;;;;7.95;5.90;;;;;;;26.65;53.09;100259.25;5128444;27;20035;-64
2021/08/23 06:35:03;;;;;;;11.82;6.22;;;;;;;26.75;52.83;100265.84;5127170;27;20076;-64
2021/08/23 06:37:30;;;;;;;8.05;5.40;;;;;;;26.76;52.67;100255.69;5129740;27;20332;-64
2021/08/23 06:39:56;;;;;;;7.15;5.43;;;;;;;26.75;52.71;100265.84;5118456;27;20070;-64
2021/08/23 06:42:22;;;;;;;8.68;5.15;;;;;;;26.71;52.83;100270.16;5109586;28;20050;-63
2021/08/23 06:44:47;;;;;;;7.93;5.65;;;;;;;26.65;53.02;100270.28;5109106;28;20092;-63
2021/08/23 06:47:13;;;;;;;7.72;5.47;;;;;;;26.56;53.10;100271.72;5116887;27;20539;-63
2021/08/23 06:49:39;;;;;;;13.20;8.95;;;;;;;26.46;53.18;100283.28;5129428;27;20070;-63
2021/08/23 06:52:05;;;;;;;10.23;8.43;;;;;;;26.37;53.61;100274.56;5129582;27;20087;-63
2021/08/23 06:54:31;;;;;;;9.48;6.82;;;;;;;26.28;54.07;100283.41;5128497;27;20050;-64
2021/08/23 06:56:57;;;;;;;16.58;8.40;;;;;;;26.28;54.57;100275.16;5129254;27;20474;-64
2021/08/23 06:59:25;;;;;;;11.30;7.15;;;;;;;26.28;55.06;100277.91;5129805;27;20019;-64
2021/08/23 07:01:50;;;;;;;11.00;5.60;;;;;;;26.39;55.02;100277.06;5129566;27;20027;-64
2021/08/23 07:04:16;;;;;;;10.60;6.55;;;;;;;26.44;54.25;100263.44;5129320;27;20643;-64
2021/08/23 07:06:41;;;;;;;9.70;6.07;;;;;;;26.50;53.98;100276.22;5129304;27;20031;-65
2021/08/23 07:09:06;;;;;;;11.15;7.57;;;;;;;26.48;54.01;100281.97;5127408;27;20035;-64
2021/08/23 07:11:32;;;;;;;9.98;7.38;;;;;;;26.44;54.05;100277.19;5128872;27;20027;-64
2021/08/23 07:13:57;;;;;;;15.07;7.18;;;;;;;26.43;54.34;100284.59;5128868;27;20041;-64
2021/08/23 07:16:23;;;;;;;8.13;5.97;;;;;;;26.40;54.70;100279.56;5129454;27;20027;-64
2021/08/23 07:18:48;;;;;;;7.88;5.55;;;;;;;26.33;54.82;100278.00;5128573;27;20026;-65
2021/08/23 07:21:14;;;;;;;10.65;6.70;;;;;;;26.36;54.70;100285.78;5127816;27;20080;-64
2021/08/23 07:23:39;;;;;;;9.73;6.82;;;;;;;26.43;55.45;100284.59;5128673;27;20101;-64
2021/08/23 07:26:05;;;;;;;8.25;5.40;;;;;;;26.34;55.82;100280.53;5128430;27;20099;-64
2021/08/23 07:28:30;;;;;;;11.65;6.13;;;;;;;26.29;55.97;100282.31;5127696;27;20066;-65
2021/08/23 07:30:56;;;;;;;10.07;6.00;;;;;;;26.26;56.10;100271.78;5127713;27;20455;-64
2021/08/23 07:33:21;;;;;;;10.05;6.03;;;;;;;26.19;56.34;100269.16;5128866;27;20080;-64
2021/08/23 07:35:47;;;;;;;9.88;5.82;;;;;;;26.18;56.75;100274.91;5128917;27;20022;-64
2021/08/23 07:38:12;;;;;;;7.68;5.47;;;;;;;26.18;57.29;100277.66;5128469;27;20023;-64
2021/08/23 07:40:38;;;;;;;10.15;6.00;;;;;;;26.20;57.84;100278.22;5117667;27;20019;-64
2021/08/23 07:43:04;;;;;;;9.38;6.10;;;;;;;26.18;57.81;100258.41;5127334;27;20027;-65
2021/08/23 07:45:29;;;;;;;9.13;5.75;;;;;;;26.31;57.86;100266.44;5128653;27;20441;-64
2021/08/23 07:47:55;;;;;;;8.00;5.65;;;;;;;26.44;57.83;100275.28;5128904;27;20027;-65
2021/08/23 07:50:20;;;;;;;6.78;5.40;;;;;;;26.57;56.72;100285.22;5128765;27;20012;-64
2021/08/23 07:52:46;;;;;;;18.55;5.78;;;;;;;26.73;55.90;100279.03;5128517;27;20064;-64
2021/08/23 07:55:12;;;;;;;11.35;6.25;;;;;;;26.91;55.60;100283.53;5127189;28;20015;-64
2021/08/23 07:57:45;;;;;;;8.02;5.35;;;;;;;27.06;55.57;100287.47;5128454;27;20015;-64
2021/08/23 08:00:13;;;;;;;7.57;5.93;;;;;;;27.14;55.16;100276.06;5128647;27;20027;-64
2021/08/23 08:02:39;;;;;;;6.75;5.80;;;;;;;27.32;54.93;100292.50;5127815;27;20295;-64
2021/08/23 08:05:05;;;;;;;8.63;6.03;;;;;;;27.43;54.65;100288.00;5127393;27;20194;-63
2021/08/23 08:07:31;;;;;;;6.28;5.20;;;;;;;27.54;54.71;100293.50;5126673;27;20152;-63
2021/08/23 08:09:56;;;;;;;6.80;5.35;;;;;;;27.65;53.76;100283.47;5131065;27;20031;-64
2021/08/23 08:12:22;;;;;;;10.98;5.65;;;;;;;27.80;53.67;100287.41;5121512;27;20049;-63
2021/08/23 08:14:48;;;;;;;10.05;5.65;;;;;;;27.93;53.89;100291.78;5111644;28;20039;-63
2021/08/23 08:17:13;;;;;;;6.57;5.10;;;;;;;28.08;52.72;100283.78;5111864;28;20046;-63
2021/08/23 08:19:39;;;;;;;5.90;4.70;;;;;;;28.32;52.79;100275.13;5111375;28;20023;-64
2021/08/23 08:22:05;;;;;;;9.15;6.13;;;;;;;28.52;52.42;100285.66;5111571;28;20483;-64
2021/08/23 08:24:32;;;;;;;6.57;4.85;;;;;;;28.76;52.09;100266.97;5112138;28;20035;-64
2021/08/23 08:26:57;;;;;;;5.78;4.97;;;;;;;29.12;51.28;100274.69;5111583;28;20402;-65
2021/08/23 08:29:23;;;;;;;10.68;5.07;;;;;;;29.36;49.92;100265.88;5111535;28;20241;-64
2021/08/23 08:31:48;;;;;;;8.55;5.18;;;;;;;29.53;48.91;100250.06;5111432;28;20440;-64
2021/08/23 08:34:14;;;;;;;5.40;4.90;;;;;;;29.76;48.63;100265.56;5128957;27;20042;-65
2021/08/23 08:36:39;;;;;;;5.10;4.50;;;;;;;29.82;48.28;100270.03;5111125;28;20028;-65
2021/08/23 08:39:05;;;;;;;6.55;4.70;;;;;;;29.89;48.37;100265.13;5116828;27;20023;-64
2021/08/23 08:41:31;;;;;;;5.93;4.70;;;;;;;29.93;47.91;100266.28;5132152;27;20019;-65
2021/08/23 08:43:57;;;;;;;7.47;4.93;;;;;;;29.89;48.05;100256.84;5131407;27;20063;-65
2021/08/23 08:46:23;;;;;;;5.30;4.53;;;;;;;29.95;48.09;100269.63;5131778;27;20038;-65
2021/08/23 08:48:49;;;;;;;6.63;4.72;;;;;;;29.92;47.74;100264.63;5129978;27;20070;-65
2021/08/23 08:51:15;;;;;;;7.88;4.95;;;;;;;29.90;47.97;100258.50;5129614;27;20035;-65
2021/08/23 08:53:40;;;;;;;7.45;5.10;;;;;;;29.91;48.17;100257.38;5110888;28;20031;-65
2021/08/23 08:56:06;;;;;;;7.53;4.80;;;;;;;29.88;48.05;100255.16;5110957;28;20391;-64
2021/08/23 08:58:32;;;;;;;6.75;4.90;;;;;;;29.81;48.09;100254.53;5111292;28;20450;-64
2021/08/23 09:00:58;;;;;;;8.27;4.80;;;;;;;29.88;48.18;100271.75;5110923;28;20042;-66
2021/08/23 09:03:29;;;;;;;4.75;4.22;;;;;;;29.86;48.04;100282.25;5129535;27;20432;-65
2021/08/23 09:06:05;;;;;;;7.05;5.05;;;;;;;29.80;47.89;100273.06;5131162;27;20118;-65
2021/08/23 09:08:32;;;;;;;8.63;4.95;;;;;;;29.80;48.11;100278.59;5130243;27;20102;-64
2021/08/23 09:11:17;;;;;;;8.00;4.57;;;;;;;29.74;48.47;100276.03;5131210;27;20060;-65
2021/08/23 09:14:04;;;;;;;6.05;4.55;;;;;;;29.77;48.43;100272.75;5131069;27;20026;-65
2021/08/23 09:16:33;;;;;;;7.18;4.57;;;;;;;29.79;48.82;100267.81;5131042;27;20038;-65
2021/08/23 09:18:59;;;;;;;8.52;4.45;;;;;;;29.73;48.94;100266.06;5131024;27;20027;-63
2021/08/23 09:21:33;;;;;;;6.53;4.72;;;;;;;29.75;48.70;100258.34;5131233;27;20119;-65
2021/08/23 09:23:59;;;;;;;9.77;4.95;;;;;;;29.77;48.24;100272.75;5131205;27;20031;-65
2021/08/23 09:26:34;;;;;;;5.25;4.70;;;;;;;29.69;48.66;100273.22;5130931;27;20042;-65
2021/08/23 09:29:06;;;;;;;8.23;4.82;;;;;;;29.64;48.88;100268.47;5131245;27;20035;-65
2021/08/23 09:31:37;;;;;;;6.65;4.50;;;;;;;29.66;49.30;100260.72;5131354;27;20027;-65
2021/08/23 09:34:14;;;;;;;5.63;4.78;;;;;;;29.66;49.66;100252.44;5129468;27;20031;-65
2021/08/23 09:36:39;;;;;;;6.35;4.30;;;;;;;29.73;49.58;100261.34;5124918;27;20062;-66
2021/08/23 09:39:12;;;;;;;4.50;4.10;;;;;;;29.79;49.08;100262.28;5109971;28;20478;-65
2021/08/23 09:41:42;;;;;;;5.88;4.00;;;;;;;29.81;49.12;100254.53;5109995;28;20035;-63
2021/08/23 09:44:12;;;;;;;8.70;4.30;;;;;;;29.78;49.29;100253.13;5109811;28;20058;-63
2021/08/23 09:46:39;;;;;;;5.13;4.47;;;;;;;29.79;49.40;100265.03;5109967;28;20106;-63
2021/08/23 09:49:13;;;;;;;5.28;4.63;;;;;;;29.76;49.31;100265.56;5109916;28;20459;-63
2021/08/23 09:51:41;;;;;;;7.10;4.40;;;;;;;29.80;49.53;100258.41;5123059;27;20398;-64
2021/08/23 09:54:08;;;;;;;6.15;4.13;;;;;;;29.81;49.58;100251.75;5109949;28;20031;-64
2021/08/23 09:56:38;;;;;;;6.50;4.65;;;;;;;29.84;49.55;100259.53;5110012;28;20423;-65
2021/08/23 09:59:05;;;;;;;6.32;4.70;;;;;;;29.84;49.38;100248.47;5109735;28;20067;-64
2021/08/23 10:01:33;;;;;;;6.18;4.10;;;;;;;29.83;49.21;100236.59;5110077;28;20072;-64
2021/08/23 10:04:06;;;;;;;5.72;4.47;;;;;;;29.90;49.00;100250.19;5109571;28;20110;-65
2021/08/23 10:06:37;;;;;;;10.90;4.53;;;;;;;29.89;48.60;100259.59;5109964;28;20020;-65
2021/08/23 10:09:04;;;;;;;6.00;4.40;;;;;;;29.90;48.42;100251.03;5127778;27;20028;-64
2021/08/23 10:11:34;;;;;;;6.10;4.40;;;;;;;29.92;48.19;100254.38;5130651;27;20056;-64
2021/08/23 10:14:01;;;;;;;7.82;4.55;;;;;;;29.91;48.11;100257.38;5130228;27;20027;-64
2021/08/23 10:16:28;;;;;;;7.65;4.50;;;;;;;29.93;48.43;100246.91;5129998;27;20038;-64
2021/08/23 10:18:54;;;;;;;7.40;4.50;;;;;;;30.05;48.13;100245.63;5128267;27;20031;-64
2021/08/23 10:21:20;;;;;;;5.05;4.55;;;;;;;30.04;47.69;100252.28;5130004;27;20023;-64
2021/08/23 10:23:49;;;;;;;7.03;5.15;;;;;;;29.96;47.59;100235.31;5129529;27;20031;-64
2021/08/23 10:26:15;;;;;;;10.68;5.35;;;;;;;29.96;47.90;100238.94;5128613;27;20027;-65
2021/08/23 10:28:41;;;;;;;7.80;4.57;;;;;;;29.89;47.37;100230.00;5129356;27;20355;-65
2021/08/23 10:31:10;;;;;;;5.05;4.50;;;;;;;29.90;47.44;100239.13;5129402;27;20030;-65
2021/08/23 10:33:42;;;;;;;6.07;4.60;;;;;;;29.83;47.85;100228.28;5129470;27;20029;-65
2021/08/23 10:36:11;;;;;;;6.40;4.60;;;;;;;29.88;48.60;100235.78;5129743;27;20472;-65
2021/08/23 10:38:38;;;;;;;5.93;4.60;;;;;;;29.85;48.65;100236.31;5123188;27;20047;-65
2021/08/23 10:41:14;;;;;;;7.38;5.13;;;;;;;29.83;48.28;100228.28;5109009;28;20033;-65
2021/08/23 10:43:48;;;;;;;5.30;4.80;;;;;;;29.85;48.86;100230.78;5108722;28;20517;-66
2021/08/23 10:46:26;;;;;;;9.30;4.35;;;;;;;29.79;48.94;100223.56;5108731;28;20032;-65
2021/08/23 10:48:53;;;;;;;9.93;4.70;;;;;;;29.70;49.36;100211.28;5107307;28;20031;-65
2021/08/23 10:51:28;;;;;;;6.10;4.97;;;;;;;29.74;49.76;100206.91;5108895;28;20773;-66
2021/08/23 10:53:54;;;;;;;6.63;4.60;;;;;;;29.71;49.44;100210.19;5125857;27;20030;-66
2021/08/23 10:56:24;;;;;;;6.28;4.40;;;;;;;29.66;49.41;100210.97;5129250;27;20568;-64
2021/08/23 10:58:50;;;;;;;4.43;4.00;;;;;;;29.63;49.39;100218.97;5129072;27;20359;-65
2021/08/23 11:01:22;;;;;;;7.28;4.43;;;;;;;29.70;49.32;100214.06;5129188;27;20130;-66
2021/08/23 11:04:03;;;;;;;9.48;4.50;;;;;;;29.59;49.66;100212.22;5128875;27;20031;-65
2021/08/23 11:06:28;;;;;;;6.63;4.43;;;;;;;29.55;49.64;100205.56;5129307;27;20034;-65
2021/08/23 11:09:11;;;;;;;6.38;4.43;;;;;;;29.51;49.96;100208.03;5127528;27;20474;-65
2021/08/23 11:11:39;;;;;;;4.68;4.18;;;;;;;29.56;49.79;100223.84;5129418;27;20493;-66
2021/08/23 11:14:21;;;;;;;5.45;4.80;;;;;;;29.56;49.34;100218.31;5128997;27;20027;-66
2021/08/23 11:16:51;;;;;;;5.97;4.32;;;;;;;29.56;48.90;100218.31;5128630;27;20099;-65
2021/08/23 11:19:22;;;;;;;5.00;4.47;;;;;;;29.58;49.15;100207.81;5128885;27;20051;-65
2021/08/23 11:22:00;;;;;;;6.57;4.45;;;;;;;29.60;49.16;100203.69;5128763;27;20037;-65